sensor_id;sensor_type;location;lat;lon;timestamp;P1;durP1;ratioP1;P2;durP2;ratioP2
21181;SDS011;10749;46.296;7.524;2024-01-25T00:01:56;2.37;;;0.80;;
21181;SDS011;10749;46.296;7.524;2024-01-25T00:04:21;1.57;;;0.90;;
21181;SDS011;10749;46.296;7.524;2024-01-25T00:06:46;1.07;;;0.77;;
21181;SDS011;10749;46.296;7.524;2024-01-25T00:09:12;1.50;;;0.90;;
21181;SDS011;10749;46.296;7.524;2024-01-25T00:11:37;1.00;;;0.83;;
21181;SDS011;10749;46.296;7.524;2024-01-25T00:14:03;2.07;;;0.83;;
21181;SDS011;10749;46.296;7.524;2024-01-25T00:16:29;1.93;;;0.70;;
21181;SDS011;10749;46.296;7.524;2024-01-25T00:18:55;0.97;;;0.80;;
21181;SDS011;10749;46.296;7.524;2024-01-25T00:21:21;1.07;;;0.67;;
21181;SDS011;10749;46.296;7.524;2024-01-25T00:23:46;1.07;;;0.60;;
21181;SDS011;10749;46.296;7.524;2024-01-25T00:26:13;2.07;;;0.97;;
21181;SDS011;10749;46.296;7.524;2024-01-25T00:28:38;1.37;;;0.83;;
21181;SDS011;10749;46.296;7.524;2024-01-25T00:31:03;1.23;;;0.60;;
21181;SDS011;10749;46.296;7.524;2024-01-25T00:33:29;1.73;;;0.80;;
21181;SDS011;10749;46.296;7.524;2024-01-25T00:35:54;2.00;;;0.67;;
21181;SDS011;10749;46.296;7.524;2024-01-25T00:38:20;1.30;;;0.70;;
21181;SDS011;10749;46.296;7.524;2024-01-25T00:40:45;0.93;;;0.60;;
21181;SDS011;10749;46.296;7.524;2024-01-25T00:43:11;0.80;;;0.50;;
21181;SDS011;10749;46.296;7.524;2024-01-25T00:45:37;1.17;;;0.70;;
21181;SDS011;10749;46.296;7.524;2024-01-25T00:48:02;1.03;;;0.80;;
21181;SDS011;10749;46.296;7.524;2024-01-25T00:50:28;1.47;;;0.90;;
21181;SDS011;10749;46.296;7.524;2024-01-25T00:52:54;1.17;;;0.70;;
21181;SDS011;10749;46.296;7.524;2024-01-25T00:55:19;1.60;;;0.80;;
21181;SDS011;10749;46.296;7.524;2024-01-25T00:57:45;0.93;;;0.70;;
21181;SDS011;10749;46.296;7.524;2024-01-25T01:00:11;0.80;;;0.63;;
21181;SDS011;10749;46.296;7.524;2024-01-25T01:02:40;2.23;;;0.80;;
21181;SDS011;10749;46.296;7.524;2024-01-25T01:05:08;0.97;;;0.60;;
21181;SDS011;10749;46.296;7.524;2024-01-25T01:07:34;1.33;;;0.63;;
21181;SDS011;10749;46.296;7.524;2024-01-25T01:09:59;1.43;;;0.60;;
21181;SDS011;10749;46.296;7.524;2024-01-25T01:12:25;0.77;;;0.57;;
21181;SDS011;10749;46.296;7.524;2024-01-25T01:14:50;1.27;;;0.80;;
21181;SDS011;10749;46.296;7.524;2024-01-25T01:17:15;1.40;;;0.80;;
21181;SDS011;10749;46.296;7.524;2024-01-25T01:19:41;4.33;;;0.70;;
21181;SDS011;10749;46.296;7.524;2024-01-25T01:22:06;1.17;;;0.60;;
21181;SDS011;10749;46.296;7.524;2024-01-25T01:24:31;2.00;;;0.60;;
21181;SDS011;10749;46.296;7.524;2024-01-25T01:26:57;1.00;;;0.73;;
21181;SDS011;10749;46.296;7.524;2024-01-25T01:29:23;0.67;;;0.60;;
21181;SDS011;10749;46.296;7.524;2024-01-25T01:31:48;1.20;;;0.60;;
21181;SDS011;10749;46.296;7.524;2024-01-25T01:36:49;1.70;;;0.70;;
21181;SDS011;10749;46.296;7.524;2024-01-25T01:39:14;1.27;;;0.50;;
21181;SDS011;10749;46.296;7.524;2024-01-25T01:41:39;1.40;;;0.80;;
21181;SDS011;10749;46.296;7.524;2024-01-25T01:44:04;1.17;;;0.80;;
21181;SDS011;10749;46.296;7.524;2024-01-25T01:46:32;0.73;;;0.60;;
21181;SDS011;10749;46.296;7.524;2024-01-25T01:49:00;0.77;;;0.60;;
21181;SDS011;10749;46.296;7.524;2024-01-25T01:51:26;1.40;;;0.70;;
21181;SDS011;10749;46.296;7.524;2024-01-25T01:53:51;2.13;;;0.70;;
21181;SDS011;10749;46.296;7.524;2024-01-25T01:56:18;1.57;;;0.60;;
21181;SDS011;10749;46.296;7.524;2024-01-25T01:58:44;1.13;;;0.60;;
21181;SDS011;10749;46.296;7.524;2024-01-25T02:01:12;1.10;;;0.63;;
21181;SDS011;10749;46.296;7.524;2024-01-25T02:03:38;1.37;;;0.80;;
21181;SDS011;10749;46.296;7.524;2024-01-25T02:06:03;1.40;;;0.73;;
21181;SDS011;10749;46.296;7.524;2024-01-25T02:08:29;1.20;;;0.70;;
21181;SDS011;10749;46.296;7.524;2024-01-25T02:10:55;1.50;;;0.77;;
21181;SDS011;10749;46.296;7.524;2024-01-25T02:13:21;1.20;;;0.60;;
21181;SDS011;10749;46.296;7.524;2024-01-25T02:15:46;2.10;;;0.80;;
21181;SDS011;10749;46.296;7.524;2024-01-25T02:18:12;0.90;;;0.60;;
21181;SDS011;10749;46.296;7.524;2024-01-25T02:20:37;1.10;;;0.60;;
21181;SDS011;10749;46.296;7.524;2024-01-25T02:23:02;1.40;;;0.70;;
21181;SDS011;10749;46.296;7.524;2024-01-25T02:25:28;1.93;;;0.50;;
21181;SDS011;10749;46.296;7.524;2024-01-25T02:27:53;1.10;;;0.57;;
21181;SDS011;10749;46.296;7.524;2024-01-25T02:30:18;1.33;;;0.70;;
21181;SDS011;10749;46.296;7.524;2024-01-25T02:32:44;2.50;;;0.60;;
21181;SDS011;10749;46.296;7.524;2024-01-25T02:35:09;0.93;;;0.60;;
21181;SDS011;10749;46.296;7.524;2024-01-25T02:37:34;1.03;;;0.50;;
21181;SDS011;10749;46.296;7.524;2024-01-25T02:40:00;0.67;;;0.40;;
21181;SDS011;10749;46.296;7.524;2024-01-25T02:42:25;0.60;;;0.50;;
21181;SDS011;10749;46.296;7.524;2024-01-25T02:44:50;2.03;;;0.70;;
21181;SDS011;10749;46.296;7.524;2024-01-25T02:47:16;1.80;;;0.47;;
21181;SDS011;10749;46.296;7.524;2024-01-25T02:49:41;1.00;;;0.50;;
21181;SDS011;10749;46.296;7.524;2024-01-25T02:52:06;0.67;;;0.50;;
21181;SDS011;10749;46.296;7.524;2024-01-25T02:54:34;0.80;;;0.50;;
21181;SDS011;10749;46.296;7.524;2024-01-25T02:57:01;0.60;;;0.50;;
21181;SDS011;10749;46.296;7.524;2024-01-25T02:59:27;1.40;;;0.50;;
21181;SDS011;10749;46.296;7.524;2024-01-25T03:01:53;0.73;;;0.40;;
21181;SDS011;10749;46.296;7.524;2024-01-25T03:04:19;0.60;;;0.47;;
21181;SDS011;10749;46.296;7.524;2024-01-25T03:06:44;0.83;;;0.50;;
21181;SDS011;10749;46.296;7.524;2024-01-25T03:09:09;0.87;;;0.40;;
21181;SDS011;10749;46.296;7.524;2024-01-25T03:11:35;0.70;;;0.50;;
21181;SDS011;10749;46.296;7.524;2024-01-25T03:14:00;0.70;;;0.50;;
21181;SDS011;10749;46.296;7.524;2024-01-25T03:16:25;0.80;;;0.40;;
21181;SDS011;10749;46.296;7.524;2024-01-25T03:18:51;0.30;;;0.30;;
21181;SDS011;10749;46.296;7.524;2024-01-25T03:21:16;0.80;;;0.40;;
21181;SDS011;10749;46.296;7.524;2024-01-25T03:23:41;0.83;;;0.40;;
21181;SDS011;10749;46.296;7.524;2024-01-25T03:26:07;1.20;;;0.50;;
21181;SDS011;10749;46.296;7.524;2024-01-25T03:28:34;0.90;;;0.50;;
21181;SDS011;10749;46.296;7.524;2024-01-25T03:31:00;0.90;;;0.50;;
21181;SDS011;10749;46.296;7.524;2024-01-25T03:33:25;0.70;;;0.33;;
21181;SDS011;10749;46.296;7.524;2024-01-25T03:35:53;1.30;;;0.60;;
21181;SDS011;10749;46.296;7.524;2024-01-25T03:38:18;0.50;;;0.30;;
21181;SDS011;10749;46.296;7.524;2024-01-25T03:40:44;0.70;;;0.40;;
21181;SDS011;10749;46.296;7.524;2024-01-25T03:43:09;0.90;;;0.40;;
21181;SDS011;10749;46.296;7.524;2024-01-25T03:45:34;0.63;;;0.40;;
21181;SDS011;10749;46.296;7.524;2024-01-25T03:48:00;1.37;;;0.50;;
21181;SDS011;10749;46.296;7.524;2024-01-25T03:50:26;1.00;;;0.50;;
21181;SDS011;10749;46.296;7.524;2024-01-25T03:52:51;1.17;;;0.40;;
21181;SDS011;10749;46.296;7.524;2024-01-25T03:55:17;0.83;;;0.40;;
21181;SDS011;10749;46.296;7.524;2024-01-25T03:57:42;2.00;;;0.50;;
21181;SDS011;10749;46.296;7.524;2024-01-25T04:00:08;1.57;;;0.40;;
21181;SDS011;10749;46.296;7.524;2024-01-25T04:02:34;1.03;;;0.30;;
21181;SDS011;10749;46.296;7.524;2024-01-25T04:04:59;0.50;;;0.40;;
21181;SDS011;10749;46.296;7.524;2024-01-25T04:07:24;1.23;;;0.50;;
21181;SDS011;10749;46.296;7.524;2024-01-25T04:09:50;0.80;;;0.67;;
21181;SDS011;10749;46.296;7.524;2024-01-25T04:12:15;0.80;;;0.50;;
21181;SDS011;10749;46.296;7.524;2024-01-25T04:14:41;0.80;;;0.40;;
21181;SDS011;10749;46.296;7.524;2024-01-25T04:17:06;0.67;;;0.40;;
21181;SDS011;10749;46.296;7.524;2024-01-25T04:19:32;0.63;;;0.43;;
21181;SDS011;10749;46.296;7.524;2024-01-25T04:21:57;0.53;;;0.40;;
21181;SDS011;10749;46.296;7.524;2024-01-25T04:24:22;0.60;;;0.50;;
21181;SDS011;10749;46.296;7.524;2024-01-25T04:26:47;0.50;;;0.50;;
21181;SDS011;10749;46.296;7.524;2024-01-25T04:29:13;0.80;;;0.40;;
21181;SDS011;10749;46.296;7.524;2024-01-25T04:31:44;0.70;;;0.43;;
21181;SDS011;10749;46.296;7.524;2024-01-25T04:34:10;2.70;;;0.40;;
21181;SDS011;10749;46.296;7.524;2024-01-25T04:36:37;0.70;;;0.33;;
21181;SDS011;10749;46.296;7.524;2024-01-25T04:39:03;0.90;;;0.50;;
21181;SDS011;10749;46.296;7.524;2024-01-25T04:41:28;0.60;;;0.40;;
21181;SDS011;10749;46.296;7.524;2024-01-25T04:43:53;0.80;;;0.60;;
21181;SDS011;10749;46.296;7.524;2024-01-25T04:46:18;1.63;;;0.30;;
21181;SDS011;10749;46.296;7.524;2024-01-25T04:48:44;0.87;;;0.40;;
21181;SDS011;10749;46.296;7.524;2024-01-25T04:51:14;0.53;;;0.37;;
21181;SDS011;10749;46.296;7.524;2024-01-25T04:53:44;0.80;;;0.40;;
21181;SDS011;10749;46.296;7.524;2024-01-25T04:56:10;0.73;;;0.40;;
21181;SDS011;10749;46.296;7.524;2024-01-25T04:58:35;1.90;;;0.40;;
21181;SDS011;10749;46.296;7.524;2024-01-25T05:01:00;1.17;;;0.40;;
21181;SDS011;10749;46.296;7.524;2024-01-25T05:03:26;0.80;;;0.40;;
21181;SDS011;10749;46.296;7.524;2024-01-25T05:05:51;1.03;;;0.40;;
21181;SDS011;10749;46.296;7.524;2024-01-25T05:08:17;0.57;;;0.40;;
21181;SDS011;10749;46.296;7.524;2024-01-25T05:10:42;1.13;;;0.37;;
21181;SDS011;10749;46.296;7.524;2024-01-25T05:13:08;2.00;;;0.43;;
21181;SDS011;10749;46.296;7.524;2024-01-25T05:15:34;0.50;;;0.30;;
21181;SDS011;10749;46.296;7.524;2024-01-25T05:17:59;0.40;;;0.27;;
21181;SDS011;10749;46.296;7.524;2024-01-25T05:20:25;0.40;;;0.40;;
21181;SDS011;10749;46.296;7.524;2024-01-25T05:22:57;1.40;;;0.30;;
21181;SDS011;10749;46.296;7.524;2024-01-25T05:25:22;0.57;;;0.40;;
21181;SDS011;10749;46.296;7.524;2024-01-25T05:27:47;0.70;;;0.40;;
21181;SDS011;10749;46.296;7.524;2024-01-25T05:30:13;0.40;;;0.40;;
21181;SDS011;10749;46.296;7.524;2024-01-25T05:32:38;0.70;;;0.27;;
21181;SDS011;10749;46.296;7.524;2024-01-25T05:35:04;0.70;;;0.43;;
21181;SDS011;10749;46.296;7.524;2024-01-25T05:37:30;0.87;;;0.33;;
21181;SDS011;10749;46.296;7.524;2024-01-25T05:39:55;0.30;;;0.30;;
21181;SDS011;10749;46.296;7.524;2024-01-25T05:42:20;0.30;;;0.30;;
21181;SDS011;10749;46.296;7.524;2024-01-25T05:44:46;0.40;;;0.40;;
21181;SDS011;10749;46.296;7.524;2024-01-25T05:47:11;0.40;;;0.30;;
21181;SDS011;10749;46.296;7.524;2024-01-25T05:49:37;0.57;;;0.37;;
21181;SDS011;10749;46.296;7.524;2024-01-25T05:52:02;0.50;;;0.30;;
21181;SDS011;10749;46.296;7.524;2024-01-25T05:54:28;0.63;;;0.30;;
21181;SDS011;10749;46.296;7.524;2024-01-25T05:56:53;1.17;;;0.40;;
21181;SDS011;10749;46.296;7.524;2024-01-25T05:59:19;0.77;;;0.30;;
21181;SDS011;10749;46.296;7.524;2024-01-25T06:01:44;0.40;;;0.30;;
21181;SDS011;10749;46.296;7.524;2024-01-25T06:04:09;0.67;;;0.40;;
21181;SDS011;10749;46.296;7.524;2024-01-25T06:06:35;0.60;;;0.40;;
21181;SDS011;10749;46.296;7.524;2024-01-25T06:09:00;1.00;;;0.70;;
21181;SDS011;10749;46.296;7.524;2024-01-25T06:11:25;1.33;;;0.40;;
21181;SDS011;10749;46.296;7.524;2024-01-25T06:13:50;0.67;;;0.40;;
21181;SDS011;10749;46.296;7.524;2024-01-25T06:16:16;0.63;;;0.40;;
21181;SDS011;10749;46.296;7.524;2024-01-25T06:18:41;0.80;;;0.40;;
21181;SDS011;10749;46.296;7.524;2024-01-25T06:21:06;0.53;;;0.30;;
21181;SDS011;10749;46.296;7.524;2024-01-25T06:23:32;0.30;;;0.20;;
21181;SDS011;10749;46.296;7.524;2024-01-25T06:25:57;0.80;;;0.50;;
21181;SDS011;10749;46.296;7.524;2024-01-25T06:28:22;0.37;;;0.30;;
21181;SDS011;10749;46.296;7.524;2024-01-25T06:30:47;1.80;;;0.40;;
21181;SDS011;10749;46.296;7.524;2024-01-25T06:33:13;0.53;;;0.40;;
21181;SDS011;10749;46.296;7.524;2024-01-25T06:35:38;1.17;;;0.50;;
21181;SDS011;10749;46.296;7.524;2024-01-25T06:38:04;1.07;;;0.40;;
21181;SDS011;10749;46.296;7.524;2024-01-25T06:40:29;0.30;;;0.30;;
21181;SDS011;10749;46.296;7.524;2024-01-25T06:42:54;0.57;;;0.47;;
21181;SDS011;10749;46.296;7.524;2024-01-25T06:45:19;0.40;;;0.37;;
21181;SDS011;10749;46.296;7.524;2024-01-25T06:47:45;0.97;;;0.40;;
21181;SDS011;10749;46.296;7.524;2024-01-25T06:50:11;1.23;;;0.43;;
21181;SDS011;10749;46.296;7.524;2024-01-25T06:52:37;1.10;;;0.30;;
21181;SDS011;10749;46.296;7.524;2024-01-25T06:55:02;0.30;;;0.30;;
21181;SDS011;10749;46.296;7.524;2024-01-25T06:57:28;1.40;;;0.30;;
21181;SDS011;10749;46.296;7.524;2024-01-25T06:59:53;1.80;;;0.40;;
21181;SDS011;10749;46.296;7.524;2024-01-25T07:02:18;0.60;;;0.40;;
21181;SDS011;10749;46.296;7.524;2024-01-25T07:04:44;0.47;;;0.30;;
21181;SDS011;10749;46.296;7.524;2024-01-25T07:07:09;0.73;;;0.43;;
21181;SDS011;10749;46.296;7.524;2024-01-25T07:09:34;1.37;;;0.30;;
21181;SDS011;10749;46.296;7.524;2024-01-25T07:11:59;0.80;;;0.40;;
21181;SDS011;10749;46.296;7.524;2024-01-25T07:14:25;0.47;;;0.40;;
21181;SDS011;10749;46.296;7.524;2024-01-25T07:16:50;0.40;;;0.30;;
21181;SDS011;10749;46.296;7.524;2024-01-25T07:19:16;0.87;;;0.30;;
21181;SDS011;10749;46.296;7.524;2024-01-25T07:21:41;0.53;;;0.40;;
21181;SDS011;10749;46.296;7.524;2024-01-25T07:24:06;0.60;;;0.40;;
21181;SDS011;10749;46.296;7.524;2024-01-25T07:26:32;0.43;;;0.40;;
21181;SDS011;10749;46.296;7.524;2024-01-25T07:29:03;0.60;;;0.40;;
21181;SDS011;10749;46.296;7.524;2024-01-25T07:31:28;2.13;;;0.47;;
21181;SDS011;10749;46.296;7.524;2024-01-25T07:33:54;0.63;;;0.30;;
21181;SDS011;10749;46.296;7.524;2024-01-25T07:36:20;1.13;;;0.50;;
21181;SDS011;10749;46.296;7.524;2024-01-25T07:38:45;1.10;;;0.50;;
21181;SDS011;10749;46.296;7.524;2024-01-25T07:41:14;0.63;;;0.50;;
21181;SDS011;10749;46.296;7.524;2024-01-25T07:43:40;5.13;;;0.60;;
21181;SDS011;10749;46.296;7.524;2024-01-25T07:46:05;0.50;;;0.30;;
21181;SDS011;10749;46.296;7.524;2024-01-25T07:48:31;0.67;;;0.50;;
21181;SDS011;10749;46.296;7.524;2024-01-25T07:50:56;0.67;;;0.40;;
21181;SDS011;10749;46.296;7.524;2024-01-25T07:53:22;0.60;;;0.40;;
21181;SDS011;10749;46.296;7.524;2024-01-25T07:55:47;0.97;;;0.40;;
21181;SDS011;10749;46.296;7.524;2024-01-25T07:58:14;0.77;;;0.50;;
21181;SDS011;10749;46.296;7.524;2024-01-25T08:00:40;0.90;;;0.43;;
21181;SDS011;10749;46.296;7.524;2024-01-25T08:03:05;0.80;;;0.40;;
21181;SDS011;10749;46.296;7.524;2024-01-25T08:05:31;1.50;;;0.57;;
21181;SDS011;10749;46.296;7.524;2024-01-25T08:07:56;0.60;;;0.40;;
21181;SDS011;10749;46.296;7.524;2024-01-25T08:10:21;0.50;;;0.37;;
21181;SDS011;10749;46.296;7.524;2024-01-25T08:12:46;0.73;;;0.50;;
21181;SDS011;10749;46.296;7.524;2024-01-25T08:15:12;0.57;;;0.40;;
21181;SDS011;10749;46.296;7.524;2024-01-25T08:17:38;0.70;;;0.40;;
21181;SDS011;10749;46.296;7.524;2024-01-25T08:20:04;0.50;;;0.50;;
21181;SDS011;10749;46.296;7.524;2024-01-25T08:22:31;1.17;;;0.50;;
21181;SDS011;10749;46.296;7.524;2024-01-25T08:24:56;1.10;;;0.60;;
21181;SDS011;10749;46.296;7.524;2024-01-25T08:27:22;1.17;;;0.50;;
21181;SDS011;10749;46.296;7.524;2024-01-25T08:29:47;1.63;;;0.80;;
21181;SDS011;10749;46.296;7.524;2024-01-25T08:32:12;0.70;;;0.40;;
21181;SDS011;10749;46.296;7.524;2024-01-25T08:34:38;1.03;;;0.40;;
21181;SDS011;10749;46.296;7.524;2024-01-25T08:37:03;0.87;;;0.50;;
21181;SDS011;10749;46.296;7.524;2024-01-25T08:39:28;0.67;;;0.30;;
21181;SDS011;10749;46.296;7.524;2024-01-25T08:41:54;0.87;;;0.50;;
21181;SDS011;10749;46.296;7.524;2024-01-25T08:44:20;0.87;;;0.40;;
21181;SDS011;10749;46.296;7.524;2024-01-25T08:46:45;1.00;;;0.57;;
21181;SDS011;10749;46.296;7.524;2024-01-25T08:49:11;2.17;;;0.40;;
21181;SDS011;10749;46.296;7.524;2024-01-25T08:51:37;0.60;;;0.40;;
21181;SDS011;10749;46.296;7.524;2024-01-25T08:54:03;0.53;;;0.40;;
21181;SDS011;10749;46.296;7.524;2024-01-25T08:56:29;1.83;;;0.50;;
21181;SDS011;10749;46.296;7.524;2024-01-25T08:58:54;2.00;;;0.53;;
21181;SDS011;10749;46.296;7.524;2024-01-25T09:01:20;0.63;;;0.50;;
21181;SDS011;10749;46.296;7.524;2024-01-25T09:03:45;0.80;;;0.60;;
21181;SDS011;10749;46.296;7.524;2024-01-25T09:06:11;1.10;;;0.50;;
21181;SDS011;10749;46.296;7.524;2024-01-25T09:08:37;0.73;;;0.50;;
21181;SDS011;10749;46.296;7.524;2024-01-25T09:11:02;2.30;;;0.60;;
21181;SDS011;10749;46.296;7.524;2024-01-25T09:13:28;0.60;;;0.40;;
21181;SDS011;10749;46.296;7.524;2024-01-25T09:15:53;2.33;;;0.60;;
21181;SDS011;10749;46.296;7.524;2024-01-25T09:18:19;0.90;;;0.40;;
21181;SDS011;10749;46.296;7.524;2024-01-25T09:20:44;1.70;;;0.50;;
21181;SDS011;10749;46.296;7.524;2024-01-25T09:23:13;0.73;;;0.40;;
21181;SDS011;10749;46.296;7.524;2024-01-25T09:25:40;0.70;;;0.43;;
21181;SDS011;10749;46.296;7.524;2024-01-25T09:28:06;0.80;;;0.50;;
21181;SDS011;10749;46.296;7.524;2024-01-25T09:30:31;0.70;;;0.33;;
21181;SDS011;10749;46.296;7.524;2024-01-25T09:32:57;0.53;;;0.40;;
21181;SDS011;10749;46.296;7.524;2024-01-25T09:35:22;0.83;;;0.50;;
21181;SDS011;10749;46.296;7.524;2024-01-25T09:37:48;0.43;;;0.30;;
21181;SDS011;10749;46.296;7.524;2024-01-25T09:40:13;1.67;;;0.60;;
21181;SDS011;10749;46.296;7.524;2024-01-25T09:42:39;1.20;;;0.57;;
21181;SDS011;10749;46.296;7.524;2024-01-25T09:45:05;2.27;;;0.70;;
21181;SDS011;10749;46.296;7.524;2024-01-25T09:47:31;1.40;;;0.70;;
21181;SDS011;10749;46.296;7.524;2024-01-25T09:49:57;2.03;;;0.77;;
21181;SDS011;10749;46.296;7.524;2024-01-25T09:52:22;0.60;;;0.40;;
21181;SDS011;10749;46.296;7.524;2024-01-25T09:54:52;3.73;;;0.70;;
21181;SDS011;10749;46.296;7.524;2024-01-25T09:57:19;2.07;;;0.40;;
21181;SDS011;10749;46.296;7.524;2024-01-25T09:59:48;0.70;;;0.60;;
21181;SDS011;10749;46.296;7.524;2024-01-25T10:02:15;0.67;;;0.43;;
21181;SDS011;10749;46.296;7.524;2024-01-25T10:04:41;1.63;;;0.50;;
21181;SDS011;10749;46.296;7.524;2024-01-25T10:07:06;2.10;;;0.53;;
21181;SDS011;10749;46.296;7.524;2024-01-25T10:09:41;3.07;;;0.50;;
21181;SDS011;10749;46.296;7.524;2024-01-25T10:12:10;1.77;;;0.40;;
21181;SDS011;10749;46.296;7.524;2024-01-25T10:14:35;0.80;;;0.40;;
21181;SDS011;10749;46.296;7.524;2024-01-25T10:17:01;1.87;;;0.40;;
21181;SDS011;10749;46.296;7.524;2024-01-25T10:19:26;1.77;;;0.77;;
21181;SDS011;10749;46.296;7.524;2024-01-25T10:21:52;0.70;;;0.40;;
21181;SDS011;10749;46.296;7.524;2024-01-25T10:24:17;1.73;;;0.50;;
21181;SDS011;10749;46.296;7.524;2024-01-25T10:26:43;0.73;;;0.33;;
21181;SDS011;10749;46.296;7.524;2024-01-25T10:29:08;3.23;;;0.70;;
21181;SDS011;10749;46.296;7.524;2024-01-25T10:31:36;1.40;;;0.40;;
21181;SDS011;10749;46.296;7.524;2024-01-25T10:34:03;1.33;;;0.50;;
21181;SDS011;10749;46.296;7.524;2024-01-25T10:36:30;1.20;;;0.73;;
21181;SDS011;10749;46.296;7.524;2024-01-25T10:39:05;0.57;;;0.50;;
21181;SDS011;10749;46.296;7.524;2024-01-25T10:41:33;0.70;;;0.43;;
21181;SDS011;10749;46.296;7.524;2024-01-25T10:43:59;0.87;;;0.40;;
21181;SDS011;10749;46.296;7.524;2024-01-25T10:46:26;0.80;;;0.50;;
21181;SDS011;10749;46.296;7.524;2024-01-25T10:48:52;0.90;;;0.77;;
21181;SDS011;10749;46.296;7.524;2024-01-25T10:51:21;2.00;;;0.80;;
21181;SDS011;10749;46.296;7.524;2024-01-25T10:53:47;1.50;;;0.90;;
21181;SDS011;10749;46.296;7.524;2024-01-25T10:56:13;3.10;;;1.70;;
21181;SDS011;10749;46.296;7.524;2024-01-25T10:58:40;3.63;;;2.40;;
21181;SDS011;10749;46.296;7.524;2024-01-25T11:01:08;6.83;;;3.27;;
21181;SDS011;10749;46.296;7.524;2024-01-25T11:03:38;1.37;;;0.70;;
21181;SDS011;10749;46.296;7.524;2024-01-25T11:06:09;1.00;;;0.60;;
21181;SDS011;10749;46.296;7.524;2024-01-25T11:08:36;1.43;;;0.60;;
21181;SDS011;10749;46.296;7.524;2024-01-25T11:11:05;0.87;;;0.50;;
21181;SDS011;10749;46.296;7.524;2024-01-25T11:13:33;0.67;;;0.50;;
21181;SDS011;10749;46.296;7.524;2024-01-25T11:15:59;1.17;;;0.40;;
21181;SDS011;10749;46.296;7.524;2024-01-25T11:18:46;0.70;;;0.40;;
21181;SDS011;10749;46.296;7.524;2024-01-25T11:21:21;2.57;;;0.80;;
21181;SDS011;10749;46.296;7.524;2024-01-25T11:23:47;2.30;;;0.97;;
21181;SDS011;10749;46.296;7.524;2024-01-25T11:26:13;0.73;;;0.60;;
21181;SDS011;10749;46.296;7.524;2024-01-25T11:28:38;0.90;;;0.43;;
21181;SDS011;10749;46.296;7.524;2024-01-25T11:31:03;1.20;;;0.73;;
21181;SDS011;10749;46.296;7.524;2024-01-25T11:33:29;0.87;;;0.50;;
21181;SDS011;10749;46.296;7.524;2024-01-25T11:35:55;3.50;;;0.53;;
21181;SDS011;10749;46.296;7.524;2024-01-25T11:38:20;1.53;;;0.40;;
21181;SDS011;10749;46.296;7.524;2024-01-25T11:40:46;0.70;;;0.40;;
21181;SDS011;10749;46.296;7.524;2024-01-25T11:43:11;0.83;;;0.50;;
21181;SDS011;10749;46.296;7.524;2024-01-25T11:45:39;0.73;;;0.33;;
21181;SDS011;10749;46.296;7.524;2024-01-25T11:48:07;0.50;;;0.40;;
21181;SDS011;10749;46.296;7.524;2024-01-25T11:50:32;2.77;;;0.50;;
21181;SDS011;10749;46.296;7.524;2024-01-25T11:52:58;3.50;;;0.60;;
21181;SDS011;10749;46.296;7.524;2024-01-25T11:55:23;0.80;;;0.40;;
21181;SDS011;10749;46.296;7.524;2024-01-25T11:57:48;0.70;;;0.43;;
21181;SDS011;10749;46.296;7.524;2024-01-25T12:00:14;1.57;;;0.43;;
21181;SDS011;10749;46.296;7.524;2024-01-25T12:02:41;0.80;;;0.53;;
21181;SDS011;10749;46.296;7.524;2024-01-25T12:05:08;0.93;;;0.57;;
21181;SDS011;10749;46.296;7.524;2024-01-25T12:07:35;1.43;;;0.40;;
21181;SDS011;10749;46.296;7.524;2024-01-25T12:10:08;0.50;;;0.40;;
21181;SDS011;10749;46.296;7.524;2024-01-25T12:12:36;1.80;;;0.50;;
21181;SDS011;10749;46.296;7.524;2024-01-25T12:15:04;1.17;;;0.40;;
21181;SDS011;10749;46.296;7.524;2024-01-25T12:17:31;2.20;;;0.40;;
21181;SDS011;10749;46.296;7.524;2024-01-25T12:19:58;2.87;;;0.53;;
21181;SDS011;10749;46.296;7.524;2024-01-25T12:22:24;1.13;;;0.50;;
21181;SDS011;10749;46.296;7.524;2024-01-25T12:24:55;1.50;;;0.40;;
21181;SDS011;10749;46.296;7.524;2024-01-25T12:27:21;2.20;;;0.40;;
21181;SDS011;10749;46.296;7.524;2024-01-25T12:29:48;0.67;;;0.40;;
21181;SDS011;10749;46.296;7.524;2024-01-25T12:32:14;1.77;;;0.40;;
21181;SDS011;10749;46.296;7.524;2024-01-25T12:34:39;1.03;;;0.40;;
21181;SDS011;10749;46.296;7.524;2024-01-25T12:37:06;0.95;;;0.55;;
21181;SDS011;10749;46.296;7.524;2024-01-25T12:39:32;1.63;;;0.50;;
21181;SDS011;10749;46.296;7.524;2024-01-25T12:41:57;2.10;;;0.50;;
21181;SDS011;10749;46.296;7.524;2024-01-25T12:44:22;2.10;;;1.08;;
21181;SDS011;10749;46.296;7.524;2024-01-25T12:46:48;0.60;;;0.37;;
21181;SDS011;10749;46.296;7.524;2024-01-25T12:49:13;1.27;;;0.70;;
21181;SDS011;10749;46.296;7.524;2024-01-25T12:51:39;1.00;;;0.40;;
21181;SDS011;10749;46.296;7.524;2024-01-25T12:54:05;2.15;;;0.40;;
21181;SDS011;10749;46.296;7.524;2024-01-25T12:56:30;0.50;;;0.25;;
21181;SDS011;10749;46.296;7.524;2024-01-25T12:58:55;0.47;;;0.30;;
21181;SDS011;10749;46.296;7.524;2024-01-25T13:01:21;2.03;;;0.40;;
21181;SDS011;10749;46.296;7.524;2024-01-25T13:03:46;0.82;;;0.40;;
21181;SDS011;10749;46.296;7.524;2024-01-25T13:06:13;0.30;;;0.30;;
21181;SDS011;10749;46.296;7.524;2024-01-25T13:08:39;0.85;;;0.20;;
21181;SDS011;10749;46.296;7.524;2024-01-25T13:11:04;1.55;;;0.30;;
21181;SDS011;10749;46.296;7.524;2024-01-25T13:13:29;0.30;;;0.20;;
21181;SDS011;10749;46.296;7.524;2024-01-25T13:15:54;0.45;;;0.20;;
21181;SDS011;10749;46.296;7.524;2024-01-25T13:18:20;0.55;;;0.30;;
21181;SDS011;10749;46.296;7.524;2024-01-25T13:20:45;0.68;;;0.38;;
21181;SDS011;10749;46.296;7.524;2024-01-25T13:23:11;0.38;;;0.20;;
21181;SDS011;10749;46.296;7.524;2024-01-25T13:25:36;0.90;;;0.40;;
21181;SDS011;10749;46.296;7.524;2024-01-25T13:28:01;1.05;;;0.30;;
21181;SDS011;10749;46.296;7.524;2024-01-25T13:30:27;1.95;;;0.40;;
21181;SDS011;10749;46.296;7.524;2024-01-25T13:32:53;0.93;;;0.30;;
21181;SDS011;10749;46.296;7.524;2024-01-25T13:35:18;1.45;;;0.30;;
21181;SDS011;10749;46.296;7.524;2024-01-25T13:37:43;1.17;;;0.43;;
21181;SDS011;10749;46.296;7.524;2024-01-25T13:40:09;4.18;;;0.40;;
21181;SDS011;10749;46.296;7.524;2024-01-25T13:42:34;3.03;;;0.40;;
21181;SDS011;10749;46.296;7.524;2024-01-25T13:44:59;3.13;;;0.30;;
21181;SDS011;10749;46.296;7.524;2024-01-25T13:47:25;1.85;;;0.47;;
21181;SDS011;10749;46.296;7.524;2024-01-25T13:49:50;2.08;;;0.22;;
21181;SDS011;10749;46.296;7.524;2024-01-25T13:52:18;0.95;;;0.30;;
21181;SDS011;10749;46.296;7.524;2024-01-25T13:54:47;0.95;;;0.20;;
21181;SDS011;10749;46.296;7.524;2024-01-25T13:57:15;0.88;;;0.50;;
21181;SDS011;10749;46.296;7.524;2024-01-25T13:59:41;1.52;;;0.30;;
21181;SDS011;10749;46.296;7.524;2024-01-25T14:02:09;1.63;;;0.40;;
21181;SDS011;10749;46.296;7.524;2024-01-25T14:04:35;0.82;;;0.30;;
21181;SDS011;10749;46.296;7.524;2024-01-25T14:07:00;1.10;;;0.30;;
21181;SDS011;10749;46.296;7.524;2024-01-25T14:09:27;1.75;;;0.30;;
21181;SDS011;10749;46.296;7.524;2024-01-25T14:11:54;1.23;;;0.33;;
21181;SDS011;10749;46.296;7.524;2024-01-25T14:14:20;1.93;;;0.47;;
21181;SDS011;10749;46.296;7.524;2024-01-25T14:16:45;2.50;;;0.50;;
21181;SDS011;10749;46.296;7.524;2024-01-25T14:19:10;0.50;;;0.30;;
21181;SDS011;10749;46.296;7.524;2024-01-25T14:21:35;1.77;;;0.30;;
21181;SDS011;10749;46.296;7.524;2024-01-25T14:24:01;1.77;;;0.30;;
21181;SDS011;10749;46.296;7.524;2024-01-25T14:26:26;1.47;;;0.30;;
21181;SDS011;10749;46.296;7.524;2024-01-25T14:28:51;1.70;;;0.47;;
21181;SDS011;10749;46.296;7.524;2024-01-25T14:31:17;0.70;;;0.40;;
21181;SDS011;10749;46.296;7.524;2024-01-25T14:33:42;0.37;;;0.30;;
21181;SDS011;10749;46.296;7.524;2024-01-25T14:36:08;1.20;;;0.50;;
21181;SDS011;10749;46.296;7.524;2024-01-25T14:38:33;0.80;;;0.30;;
21181;SDS011;10749;46.296;7.524;2024-01-25T14:40:59;2.20;;;0.43;;
21181;SDS011;10749;46.296;7.524;2024-01-25T14:43:24;0.67;;;0.33;;